Time;durP1;ratioP1;P1;durP2;ratioP2;P2;SDS_P1;SDS_P2;PMS_P1;PMS_P2;Temp;Humidity;BMP_temperature;BMP_pressure;BME280_temperature;BME280_humidity;BME280_pressure;Samples;Min_cycle;Max_cycle;Signal;HPM_P1;HPM_P2
2021/08/25 00:01:10;;;;;;;5.50;4.27;;;;;;;14.37;70.77;99978.34;4941728;23;20211;-83
2021/08/25 00:03:59;;;;;;;6.00;4.37;;;;;;;14.35;70.88;99969.66;4937256;29;20259;-82
2021/08/25 00:06:27;;;;;;;5.83;3.80;;;;;;;14.23;71.47;99960.75;4936925;29;20265;-83
2021/08/25 00:08:59;;;;;;;6.37;4.70;;;;;;;14.29;71.53;99972.47;4961847;23;20242;-82
2021/08/25 00:11:34;;;;;;;5.70;4.40;;;;;;;14.15;71.67;99958.41;4920035;29;20322;-83
2021/08/25 00:14:01;;;;;;;5.00;4.50;;;;;;;14.15;71.87;99966.50;4906865;23;20224;-83
2021/08/25 00:16:34;;;;;;;4.87;4.47;;;;;;;14.16;72.09;99984.31;4928207;29;20233;-83
2021/08/25 00:19:22;;;;;;;5.60;4.13;;;;;;;14.11;72.45;99976.94;4936584;23;20255;-83
2021/08/25 00:22:27;;;;;;;5.53;5.03;;;;;;;13.98;72.64;99974.47;5006117;23;20230;-82
2021/08/25 00:25:43;;;;;;;5.10;4.63;;;;;;;13.99;72.88;99973.44;4934107;29;20294;-83
2021/08/25 00:28:55;;;;;;;5.67;4.70;;;;;;;14.00;72.68;99980.44;4923606;29;20222;-82
2021/08/25 00:31:23;;;;;;;5.00;4.53;;;;;;;13.84;72.75;99959.59;4919863;29;20227;-83
2021/08/25 00:34:00;;;;;;;4.70;4.30;;;;;;;13.78;73.21;99965.91;4926596;23;20313;-83
2021/08/25 00:36:41;;;;;;;5.53;4.50;;;;;;;13.84;73.55;99977.63;4912560;29;20231;-82
2021/08/25 00:39:18;;;;;;;4.07;3.67;;;;;;;13.83;73.88;99966.03;4942731;23;20237;-82
2021/08/25 00:42:11;;;;;;;5.47;4.23;;;;;;;13.68;73.77;99952.19;4961128;23;20251;-82
2021/08/25 00:45:09;;;;;;;5.23;4.20;;;;;;;13.79;73.49;99970.22;4920218;29;20195;-82
2021/08/25 00:48:18;;;;;;;4.80;4.40;;;;;;;13.59;73.43;99950.88;4946728;23;20225;-82
2021/08/25 00:51:32;;;;;;;4.43;3.90;;;;;;;13.73;73.33;99976.53;4931429;23;20231;-82
2021/08/25 00:54:24;;;;;;;5.50;4.20;;;;;;;13.63;73.80;99971.72;4900690;29;20737;-82
2021/08/25 00:57:38;;;;;;;5.87;4.30;;;;;;;13.47;73.83;99948.19;4902713;29;20229;-82
2021/08/25 01:00:29;;;;;;;5.83;4.37;;;;;;;13.55;74.19;99971.25;5010206;23;20238;-81
2021/08/25 01:03:30;;;;;;;5.33;4.40;;;;;;;13.39;74.02;99945.00;4938760;29;20234;-81
2021/08/25 01:06:24;;;;;;;5.90;4.10;;;;;;;13.34;74.13;99940.31;4918302;23;20268;-82
2021/08/25 01:09:01;;;;;;;4.90;4.30;;;;;;;13.33;74.46;99954.81;4943826;23;20251;-81
2021/08/25 01:11:47;;;;;;;4.43;4.03;;;;;;;13.22;74.70;99939.44;4933155;23;20223;-81
2021/08/25 01:14:18;;;;;;;4.80;4.20;;;;;;;13.28;74.58;99967.31;4914206;29;20238;-81
2021/08/25 01:16:53;;;;;;;5.87;4.40;;;;;;;13.31;74.53;99956.06;4883781;29;20259;-82
2021/08/25 01:19:21;;;;;;;5.77;4.17;;;;;;;13.33;74.68;99960.19;4898955;29;20195;-81
2021/08/25 01:21:54;;;;;;;4.43;4.03;;;;;;;13.35;73.95;99960.75;4898830;29;20235;-82
2021/08/25 01:24:25;;;;;;;4.70;4.30;;;;;;;13.21;73.95;99953.94;4913907;29;20235;-81
2021/08/25 01:26:53;;;;;;;5.67;4.10;;;;;;;13.22;74.02;99952.88;4899571;29;20191;-81
2021/08/25 01:29:28;;;;;;;5.40;4.03;;;;;;;13.07;74.21;99929.06;4915271;29;20231;-81
2021/08/25 01:31:58;;;;;;;6.47;3.80;;;;;;;13.08;74.28;99941.47;4899193;29;20218;-81
2021/08/25 01:34:29;;;;;;;4.83;3.87;;;;;;;13.01;74.42;99937.22;4914043;29;20223;-81
2021/08/25 01:37:00;;;;;;;4.73;4.13;;;;;;;13.14;73.96;99950.53;4915703;29;20231;-82
2021/08/25 01:39:31;;;;;;;4.80;4.37;;;;;;;13.14;74.03;99959.41;4916243;29;20268;-81
2021/08/25 01:42:08;;;;;;;4.50;4.10;;;;;;;13.06;74.70;99957.03;4915202;29;20238;-81
2021/08/25 01:47:15;;;;;;;4.40;4.00;;;;;;;13.08;75.16;99954.91;4932926;29;20237;-81
2021/08/25 01:49:47;;;;;;;6.03;4.23;;;;;;;12.98;74.66;99926.91;4934654;29;20234;-81
2021/08/25 01:52:27;;;;;;;4.97;4.30;;;;;;;13.08;75.15;99943.31;4935239;29;20225;-82
2021/08/25 01:55:04;;;;;;;5.53;3.90;;;;;;;13.03;74.93;99935.94;4919947;29;20226;-81
2021/08/25 01:57:38;;;;;;;6.23;4.57;;;;;;;13.05;75.30;99927.66;4936948;29;20212;-81
2021/08/25 02:00:27;;;;;;;5.37;4.70;;;;;;;13.05;75.53;99924.97;4934609;29;20217;-82
2021/08/25 02:03:17;;;;;;;4.43;4.03;;;;;;;12.90;75.76;99908.41;4942825;23;20533;-81
2021/08/25 02:06:08;;;;;;;6.03;4.20;;;;;;;12.80;75.47;99885.56;4934391;29;20285;-82
2021/08/25 02:08:44;;;;;;;4.63;4.23;;;;;;;12.98;75.68;99925.03;4942551;23;20230;-81
2021/08/25 02:11:16;;;;;;;6.43;4.33;;;;;;;13.03;75.92;99918.97;4904964;29;20222;-82
2021/08/25 02:13:45;;;;;;;5.17;4.50;;;;;;;12.87;75.47;99900.81;4934877;29;20245;-81
2021/08/25 02:16:19;;;;;;;4.70;4.20;;;;;;;12.93;75.41;99884.56;4917705;29;20242;-82
2021/08/25 02:18:47;;;;;;;5.90;4.50;;;;;;;13.04;75.65;99910.69;4934414;29;20266;-81
2021/08/25 02:21:16;;;;;;;4.60;4.20;;;;;;;12.97;75.35;99895.72;4934535;29;20298;-82
2021/08/25 02:23:45;;;;;;;6.53;4.70;;;;;;;13.07;75.40;99912.09;4934703;29;20684;-81
2021/08/25 02:26:19;;;;;;;5.20;4.43;;;;;;;13.01;75.61;99907.66;4930483;29;20259;-81
2021/08/25 02:28:50;;;;;;;4.90;4.40;;;;;;;13.06;75.92;99921.22;4918330;29;20244;-82
2021/08/25 02:31:23;;;;;;;5.00;4.50;;;;;;;13.03;75.71;99900.16;4935377;29;20208;-81
2021/08/25 02:34:00;;;;;;;5.67;4.20;;;;;;;12.88;75.28;99879.03;4934879;29;20209;-82
2021/08/25 02:36:31;;;;;;;6.90;4.50;;;;;;;12.91;75.65;99893.91;4933838;29;20261;-82
2021/08/25 02:39:02;;;;;;;4.90;4.40;;;;;;;12.88;76.11;99892.50;4918134;29;20229;-82
2021/08/25 02:41:54;;;;;;;4.97;4.33;;;;;;;12.82;76.11;99893.44;4933739;29;20241;-81
2021/08/25 02:44:24;;;;;;;4.83;4.33;;;;;;;12.67;76.06;99872.31;4933668;29;20230;-81
2021/08/25 02:47:01;;;;;;;5.43;4.40;;;;;;;12.63;76.08;99868.44;4920703;29;20638;-82
2021/08/25 02:49:33;;;;;;;5.10;4.57;;;;;;;12.81;76.40;99905.22;4918025;29;20290;-81
2021/08/25 02:52:41;;;;;;;6.40;4.20;;;;;;;12.62;76.13;99871.34;4919225;29;20254;-82
2021/08/25 02:55:17;;;;;;;5.00;4.50;;;;;;;12.66;76.31;99881.41;4933135;29;20240;-81
2021/08/25 02:57:46;;;;;;;5.73;4.17;;;;;;;12.62;76.59;99892.84;4934437;29;20230;-81
2021/08/25 03:00:17;;;;;;;5.00;4.50;;;;;;;12.50;76.57;99878.56;4964625;23;20268;-81
2021/08/25 03:02:51;;;;;;;4.90;4.30;;;;;;;12.57;76.64;99890.84;4953798;29;20217;-81
2021/08/25 03:05:25;;;;;;;4.77;4.30;;;;;;;12.61;76.66;99892.03;4954103;29;20194;-82
2021/08/25 03:07:53;;;;;;;4.73;4.30;;;;;;;12.53;76.79;99875.41;4953681;29;20229;-81
2021/08/25 03:10:23;;;;;;;5.30;4.30;;;;;;;12.31;76.56;99854.38;4952428;29;20296;-81
2021/08/25 03:13:13;;;;;;;6.60;4.27;;;;;;;12.34;76.86;99862.00;4949630;29;20224;-81
2021/08/25 03:15:45;;;;;;;7.10;4.03;;;;;;;12.44;76.73;99882.13;4938242;29;20229;-81
2021/08/25 03:18:26;;;;;;;5.60;4.23;;;;;;;12.33;76.96;99873.78;4953017;29;20253;-81
2021/08/25 03:21:18;;;;;;;5.53;4.30;;;;;;;12.26;77.39;99874.91;4962500;23;20231;-81
2021/08/25 03:23:48;;;;;;;5.17;4.67;;;;;;;12.10;77.37;99854.81;4918527;29;20226;-81
2021/08/25 03:26:28;;;;;;;7.37;4.30;;;;;;;12.27;78.01;99895.34;4951412;23;20248;-82
2021/08/25 03:29:08;;;;;;;5.40;4.90;;;;;;;12.26;77.64;99881.09;4947798;29;20233;-82
2021/08/25 03:31:51;;;;;;;6.50;4.40;;;;;;;12.28;77.94;99887.06;4967104;23;20257;-82
2021/08/25 03:34:21;;;;;;;5.80;5.00;;;;;;;12.21;77.62;99866.69;4899682;29;20302;-83
2021/08/25 03:37:00;;;;;;;4.47;4.07;;;;;;;12.21;77.19;99864.00;4910539;29;20234;-81
2021/08/25 03:42:00;;;;;;;7.03;4.87;;;;;;;12.21;77.59;99870.22;4896683;29;20235;-81
2021/08/25 03:44:31;;;;;;;4.80;4.13;;;;;;;12.13;77.60;99861.63;4898223;29;20239;-82
2021/08/25 03:46:59;;;;;;;6.03;4.30;;;;;;;12.11;77.58;99879.81;4899271;29;20283;-81
2021/08/25 03:49:28;;;;;;;4.20;3.80;;;;;;;12.23;77.49;99883.41;4890306;29;20682;-81
2021/08/25 03:51:58;;;;;;;4.63;4.23;;;;;;;12.11;77.81;99875.28;4894486;29;20223;-81
2021/08/25 03:54:33;;;;;;;5.03;3.97;;;;;;;12.21;77.59;99872.06;4898561;29;20232;-81
2021/08/25 03:57:05;;;;;;;6.40;4.67;;;;;;;12.00;78.00;99851.00;4910741;29;20234;-81
2021/08/25 04:02:11;;;;;;;7.07;4.53;;;;;;;11.97;77.71;99852.28;4934901;29;20309;-82
2021/08/25 04:04:41;;;;;;;6.20;4.00;;;;;;;12.03;77.82;99856.78;4936250;29;20250;-82
2021/08/25 04:07:12;;;;;;;5.17;4.43;;;;;;;11.95;77.82;99864.28;4923381;23;20235;-82
2021/08/25 04:09:43;;;;;;;4.97;3.80;;;;;;;11.98;77.76;99864.69;4902277;29;20201;-81
2021/08/25 04:12:11;;;;;;;4.57;4.13;;;;;;;12.08;77.84;99888.34;4916909;29;20235;-81
2021/08/25 04:15:10;;;;;;;5.00;3.90;;;;;;;12.22;77.75;99897.91;4928528;23;20255;-81
2021/08/25 04:18:03;;;;;;;7.00;4.37;;;;;;;12.07;77.61;99868.72;4917139;29;20223;-81
2021/08/25 04:20:41;;;;;;;4.80;4.40;;;;;;;12.09;77.60;99861.25;4925443;23;20235;-80
2021/08/25 04:23:19;;;;;;;5.23;4.20;;;;;;;12.34;77.26;99891.53;4900572;29;20238;-82
2021/08/25 04:25:53;;;;;;;5.03;3.83;;;;;;;12.26;76.99;99875.72;4916494;29;20267;-82
2021/08/25 04:28:31;;;;;;;5.73;4.40;;;;;;;12.29;77.50;99867.22;4917670;29;20223;-81
2021/08/25 04:31:08;;;;;;;8.07;4.53;;;;;;;12.40;76.99;99872.88;4914382;29;20234;-81
2021/08/25 04:36:34;;;;;;;7.00;4.40;;;;;;;12.60;76.59;99898.44;4911768;29;20234;-82
2021/08/25 04:39:01;;;;;;;6.33;4.30;;;;;;;12.68;76.81;99903.53;4908998;29;20705;-82
2021/08/25 04:41:31;;;;;;;4.80;4.23;;;;;;;12.67;76.59;99891.13;4923736;29;20222;-82
2021/08/25 04:44:04;;;;;;;5.30;3.77;;;;;;;12.70;76.30;99896.03;4900185;29;20263;-82
2021/08/25 04:46:44;;;;;;;4.77;4.20;;;;;;;12.78;76.44;99903.78;4916075;29;20250;-81
2021/08/25 04:49:22;;;;;;;5.50;3.90;;;;;;;12.83;76.46;99903.09;4871988;29;20243;-81
2021/08/25 04:51:54;;;;;;;6.00;3.50;;;;;;;12.87;75.90;99890.88;4940810;23;20242;-81
2021/08/25 04:54:26;;;;;;;4.70;4.10;;;;;;;13.09;75.78;99899.25;4936436;29;20308;-81
2021/08/25 04:57:16;;;;;;;4.17;3.83;;;;;;;13.17;75.63;99888.19;4943362;23;20652;-82
2021/08/25 04:59:51;;;;;;;5.23;4.07;;;;;;;13.18;75.31;99873.69;4898018;29;20222;-81
2021/08/25 05:02:25;;;;;;;6.43;3.63;;;;;;;13.38;75.01;99890.34;4932827;29;20233;-82
2021/08/25 05:04:55;;;;;;;5.23;3.77;;;;;;;13.56;75.07;99897.50;4917705;29;20205;-81
2021/08/25 05:07:29;;;;;;;5.53;3.80;;;;;;;13.80;74.52;99904.56;4932969;29;20222;-82
2021/08/25 05:10:18;;;;;;;4.53;3.63;;;;;;;14.05;73.53;99904.28;4919269;29;20238;-81
2021/08/25 05:13:05;;;;;;;3.50;3.13;;;;;;;14.18;73.07;99889.78;4934315;29;20634;-81
2021/08/25 05:16:14;;;;;;;5.07;3.40;;;;;;;14.48;71.76;99885.03;4288039;23;21949315;-81
2021/08/25 05:20:17;;;;;;;4.40;2.90;;;;;;;15.03;70.28;99904.19;4875826;23;20235;-82
2021/08/25 05:23:17;;;;;;;3.80;3.20;;;;;;;15.19;68.89;99903.41;4916696;29;20234;-84
2021/08/25 05:25:52;;;;;;;3.50;3.10;;;;;;;15.34;68.07;99890.19;4906183;29;20242;-84
2021/08/25 05:28:19;;;;;;;6.20;3.17;;;;;;;15.59;67.04;99892.50;4888647;29;20298;-86
2021/08/25 05:30:46;;;;;;;3.30;3.00;;;;;;;15.77;66.52;99899.56;4899896;29;20275;-83
2021/08/25 05:33:13;;;;;;;5.10;3.50;;;;;;;15.95;65.79;99898.47;4883856;29;20591;-88
2021/08/25 05:35:39;;;;;;;3.43;3.10;;;;;;;16.07;64.98;99899.19;4883702;29;20288;-85
2021/08/25 05:38:06;;;;;;;3.73;3.07;;;;;;;16.04;63.76;99895.09;4868505;29;20601;-87
2021/08/25 05:40:33;;;;;;;4.27;2.80;;;;;;;16.15;64.57;99896.84;4902261;29;20538;-88
2021/08/25 05:43:00;;;;;;;5.40;3.20;;;;;;;16.48;64.23;99895.94;4902602;29;20246;-88
2021/08/25 05:45:26;;;;;;;6.87;3.40;;;;;;;16.45;63.43;99893.75;4902355;29;20683;-87
2021/08/25 05:47:57;;;;;;;4.60;3.10;;;;;;;16.58;62.19;99882.59;4901435;29;20234;-88
2021/08/25 05:50:24;;;;;;;4.73;3.10;;;;;;;16.68;61.33;99881.88;4878685;29;20232;-85
2021/08/25 05:52:52;;;;;;;4.77;3.30;;;;;;;16.78;61.21;99873.06;4893146;29;20555;-85
2021/08/25 05:55:19;;;;;;;4.53;3.30;;;;;;;16.78;62.05;99876.59;4917992;29;20869;-85
2021/08/25 05:57:46;;;;;;;5.60;3.47;;;;;;;16.77;61.02;99877.66;4915088;29;20285;-86
2021/08/25 06:00:14;;;;;;;4.47;3.10;;;;;;;16.83;60.96;99871.22;4882998;29;20246;-86
2021/08/25 06:02:48;;;;;;;4.63;3.33;;;;;;;16.82;60.52;99858.78;4886213;29;20293;-84
2021/08/25 06:05:16;;;;;;;4.00;3.17;;;;;;;16.94;60.31;99861.31;4897865;29;20318;-90
2021/08/25 06:07:43;;;;;;;5.70;3.10;;;;;;;16.99;59.95;99855.94;4886497;29;20511;-88
2021/08/25 06:10:10;;;;;;;4.53;3.20;;;;;;;17.08;60.01;99865.25;4913724;29;20220;-84
2021/08/25 06:12:37;;;;;;;6.63;3.17;;;;;;;16.82;60.49;99860.66;4871557;29;20240;-86
2021/08/25 06:15:05;;;;;;;7.00;3.60;;;;;;;17.09;60.19;99869.59;4900105;29;20233;-88
2021/08/25 06:17:31;;;;;;;3.47;2.70;;;;;;;17.47;59.41;99869.41;4902133;29;20244;-87
2021/08/25 06:19:58;;;;;;;4.37;2.90;;;;;;;17.57;59.15;99866.78;4901321;29;20239;-88
2021/08/25 06:22:25;;;;;;;4.30;2.83;;;;;;;17.61;58.38;99869.81;4901570;29;20312;-88
2021/08/25 06:24:52;;;;;;;5.10;3.27;;;;;;;17.55;58.24;99865.38;4901820;29;20296;-89
2021/08/25 06:27:19;;;;;;;5.17;3.60;;;;;;;17.79;57.25;99857.72;4901715;29;20303;-89
2021/08/25 06:29:45;;;;;;;6.73;3.30;;;;;;;17.99;56.75;99860.56;4886442;29;20322;-87
2021/08/25 06:32:12;;;;;;;6.37;3.10;;;;;;;17.86;56.96;99861.03;4917178;29;20236;-88
2021/08/25 06:34:39;;;;;;;4.43;3.10;;;;;;;17.84;56.92;99857.75;4914584;29;20230;-88
2021/08/25 06:37:06;;;;;;;4.90;3.10;;;;;;;18.00;56.95;99856.78;4915554;29;20225;-86
2021/08/25 06:39:32;;;;;;;6.37;3.20;;;;;;;18.16;56.95;99854.97;4914858;29;20248;-89
2021/08/25 06:41:59;;;;;;;3.53;2.90;;;;;;;18.44;55.75;99849.94;4876775;29;20279;-85
2021/08/25 06:44:26;;;;;;;6.13;3.27;;;;;;;18.09;56.06;99846.25;4916052;29;20228;-88
2021/08/25 06:46:53;;;;;;;4.67;3.40;;;;;;;18.49;55.37;99851.84;4885065;29;20323;-91
2021/08/25 06:49:20;;;;;;;4.07;3.00;;;;;;;18.54;55.74;99851.09;4900965;29;20580;-89
2021/08/25 06:51:47;;;;;;;6.97;3.30;;;;;;;18.85;55.08;99845.47;4899664;29;20639;-90
2021/08/25 06:54:14;;;;;;;5.03;3.43;;;;;;;19.21;54.46;99857.22;4917965;29;20240;-89
2021/08/25 06:56:40;;;;;;;5.90;3.67;;;;;;;18.93;53.85;99841.44;4917030;29;20237;-87
2021/08/25 06:59:07;;;;;;;4.83;3.60;;;;;;;19.16;53.24;99854.50;4914297;29;20310;-87
2021/08/25 07:01:34;;;;;;;5.27;3.23;;;;;;;18.92;53.66;99856.91;4886451;29;20589;-89
2021/08/25 07:04:01;;;;;;;5.10;3.10;;;;;;;19.03;53.24;99855.03;4890215;29;20325;-86
2021/08/25 07:06:28;;;;;;;4.60;3.50;;;;;;;19.29;52.08;99855.84;4904923;29;20241;-87
2021/08/25 07:08:55;;;;;;;5.57;3.30;;;;;;;18.82;53.54;99854.16;4906171;29;20228;-84
2021/08/25 07:11:22;;;;;;;4.97;3.27;;;;;;;18.98;53.38;99844.16;4905718;29;20238;-87
2021/08/25 07:13:48;;;;;;;4.37;3.60;;;;;;;19.14;52.77;99853.94;4886747;29;20309;-87
2021/08/25 07:16:16;;;;;;;4.93;3.30;;;;;;;18.79;53.60;99857.41;4902056;29;20635;-87
2021/08/25 07:18:43;;;;;;;6.33;3.23;;;;;;;18.52;54.35;99847.81;4901940;29;20240;-88
2021/08/25 07:21:11;;;;;;;5.43;3.30;;;;;;;18.17;55.56;99851.19;4887127;29;20544;-87
2021/08/25 07:23:38;;;;;;;5.70;3.20;;;;;;;18.19;55.34;99844.44;4886708;29;20270;-87
2021/08/25 07:26:05;;;;;;;6.43;3.87;;;;;;;17.68;56.19;99834.38;4886426;29;20234;-86
2021/08/25 07:28:32;;;;;;;7.43;3.60;;;;;;;17.80;56.11;99854.75;4902432;29;20593;-90
2021/08/25 07:30:59;;;;;;;7.90;3.63;;;;;;;17.94;56.78;99842.38;4886484;29;20589;-88
2021/08/25 07:33:26;;;;;;;5.27;3.63;;;;;;;18.36;56.59;99855.06;4901934;29;20319;-91
2021/08/25 07:35:52;;;;;;;7.33;3.93;;;;;;;18.41;55.73;99841.53;4902028;29;20547;-88
2021/08/25 07:38:19;;;;;;;5.70;3.77;;;;;;;18.29;55.53;99847.16;4886101;29;20317;-91
2021/08/25 07:40:46;;;;;;;4.73;3.67;;;;;;;18.39;54.98;99832.81;4902085;29;20738;-87
2021/08/25 07:43:13;;;;;;;6.23;4.00;;;;;;;18.12;54.52;99841.13;4886496;29;20671;-89
2021/08/25 07:45:40;;;;;;;6.67;3.73;;;;;;;18.36;54.95;99833.38;4870772;29;20576;-85
2021/08/25 07:48:07;;;;;;;7.00;3.80;;;;;;;18.54;53.97;99837.53;4901163;29;20529;-87
2021/08/25 07:50:34;;;;;;;5.37;3.80;;;;;;;18.35;54.57;99826.31;4900843;29;20827;-85
2021/08/25 07:53:01;;;;;;;4.77;3.90;;;;;;;18.52;53.98;99843.19;4900293;29;20321;-85
2021/08/25 07:55:27;;;;;;;6.17;3.80;;;;;;;18.36;53.72;99836.06;4915966;29;20231;-86
2021/08/25 07:57:54;;;;;;;6.13;3.97;;;;;;;18.66;53.04;99847.09;4900897;29;20285;-88
2021/08/25 08:00:21;;;;;;;5.47;3.83;;;;;;;18.60;53.17;99833.75;4901467;29;20616;-87
2021/08/25 08:02:48;;;;;;;6.00;4.13;;;;;;;18.70;53.68;99831.06;4885515;29;20237;-88
2021/08/25 08:05:16;;;;;;;4.63;3.87;;;;;;;18.86;53.34;99841.69;4885357;29;20239;-90
2021/08/25 08:07:43;;;;;;;6.93;3.63;;;;;;;18.88;53.96;99836.81;4885473;29;20306;-89
2021/08/25 08:10:10;;;;;;;5.93;3.87;;;;;;;19.00;52.70;99841.97;4885076;29;20283;-87
2021/08/25 08:12:37;;;;;;;5.77;3.83;;;;;;;18.70;52.15;99836.50;4900643;29;20516;-88
2021/08/25 08:15:10;;;;;;;4.67;3.80;;;;;;;18.96;51.75;99837.34;4899517;29;20242;-85
2021/08/25 08:17:39;;;;;;;5.13;3.73;;;;;;;19.05;50.62;99849.31;4885705;29;20237;-85
2021/08/25 08:20:06;;;;;;;5.63;4.10;;;;;;;19.22;50.50;99833.59;4884350;29;20316;-85
2021/08/25 08:22:33;;;;;;;7.40;3.97;;;;;;;19.78;49.60;99843.34;4916240;29;20286;-88
2021/08/25 08:24:59;;;;;;;5.40;3.60;;;;;;;20.29;46.82;99840.50;4884975;29;20230;-87
2021/08/25 08:27:26;;;;;;;7.27;3.90;;;;;;;20.70;46.90;99824.81;4904340;29;20234;-89
2021/08/25 08:29:53;;;;;;;5.30;3.97;;;;;;;20.46;44.89;99821.13;4903544;29;20250;-87
2021/08/25 08:32:20;;;;;;;6.70;3.80;;;;;;;20.39;45.42;99807.81;4887804;29;20241;-85
2021/08/25 08:34:47;;;;;;;5.57;3.30;;;;;;;20.67;46.04;99810.97;4903364;29;20234;-86
2021/08/25 08:37:14;;;;;;;4.30;3.60;;;;;;;20.67;45.81;99810.97;4903401;29;20254;-87
2021/08/25 08:39:41;;;;;;;5.57;3.60;;;;;;;20.55;45.42;99801.22;4903403;29;20687;-85
2021/08/25 08:42:24;;;;;;;5.47;3.73;;;;;;;20.52;44.80;99814.59;4919539;29;20267;-88
2021/08/25 08:44:52;;;;;;;6.93;4.27;;;;;;;20.50;44.59;99803.97;4903584;29;20637;-87
2021/08/25 08:47:22;;;;;;;6.33;4.17;;;;;;;20.13;44.13;99807.09;4919052;29;20672;-88
2021/08/25 08:49:51;;;;;;;6.70;3.93;;;;;;;20.36;43.73;99797.50;4903428;29;20226;-81
2021/08/25 08:52:20;;;;;;;6.07;4.70;;;;;;;20.30;42.44;99797.75;4918480;29;20561;-90
2021/08/25 08:54:48;;;;;;;6.77;4.50;;;;;;;20.55;41.73;99789.50;4918878;29;20250;-87
2021/08/25 08:57:15;;;;;;;7.30;4.23;;;;;;;20.90;41.98;99786.53;4919257;29;20238;-87
2021/08/25 08:59:41;;;;;;;6.77;4.63;;;;;;;20.84;39.46;99784.97;4918442;29;20230;-83
2021/08/25 09:02:42;;;;;;;6.57;4.80;;;;;;;21.18;40.24;99784.22;4918519;29;20230;-85
2021/08/25 09:05:28;;;;;;;6.57;4.70;;;;;;;21.49;39.15;99791.00;4890864;29;20248;-85
2021/08/25 09:08:00;;;;;;;6.40;4.57;;;;;;;21.59;39.90;99787.38;4918575;29;20638;-86
2021/08/25 09:10:35;;;;;;;5.93;4.57;;;;;;;21.38;38.80;99775.84;4918314;29;20242;-86
2021/08/25 09:13:05;;;;;;;6.60;4.77;;;;;;;21.50;39.85;99789.91;4918428;29;20729;-88
2021/08/25 09:15:34;;;;;;;6.10;4.57;;;;;;;21.55;40.19;99770.78;4918310;29;20277;-87
2021/08/25 09:18:03;;;;;;;6.57;4.73;;;;;;;21.80;38.10;99781.41;4887320;29;20250;-90
2021/08/25 09:20:44;;;;;;;6.47;4.70;;;;;;;22.06;38.92;99778.44;4918280;29;20597;-93
2021/08/25 09:23:15;;;;;;;6.47;4.73;;;;;;;22.25;37.63;99780.09;4918652;29;20226;-85
2021/08/25 09:25:42;;;;;;;6.70;4.60;;;;;;;21.97;39.55;99777.44;4917877;29;20317;-86
2021/08/25 09:28:12;;;;;;;6.47;4.53;;;;;;;21.77;39.87;99779.28;4917943;29;20254;-84
2021/08/25 09:31:17;;;;;;;6.80;5.03;;;;;;;21.12;41.35;99771.69;4917806;29;20230;-86
2021/08/25 09:33:45;;;;;;;7.40;5.87;;;;;;;21.22;40.49;99768.91;4909567;29;20610;-85
2021/08/25 09:36:18;;;;;;;8.17;5.00;;;;;;;21.09;40.63;99762.97;4918695;29;20235;-85
2021/08/25 09:38:55;;;;;;;7.90;5.90;;;;;;;21.37;39.48;99769.56;4902321;29;20229;-85
2021/08/25 09:41:22;;;;;;;7.10;5.33;;;;;;;22.39;39.30;99767.34;4886804;29;20650;-84
2021/08/25 09:43:50;;;;;;;6.53;4.53;;;;;;;22.03;37.71;99765.34;4902018;29;20294;-85
2021/08/25 09:46:22;;;;;;;8.10;5.33;;;;;;;22.07;38.80;99774.59;4901382;29;20238;-85
2021/08/25 09:48:52;;;;;;;7.73;5.00;;;;;;;22.59;37.83;99773.63;4886716;29;20925;-85
2021/08/25 09:51:40;;;;;;;7.63;4.87;;;;;;;22.53;38.11;99758.44;4917724;29;20293;-84
2021/08/25 09:54:11;;;;;;;7.13;4.63;;;;;;;22.57;37.92;99773.13;4918885;29;20234;-82
2021/08/25 09:56:40;;;;;;;7.07;4.73;;;;;;;22.58;37.68;99755.63;4917960;29;20228;-86
2021/08/25 09:59:09;;;;;;;5.43;4.23;;;;;;;22.87;37.46;99752.75;4902621;29;20243;-84
2021/08/25 10:01:36;;;;;;;6.30;4.80;;;;;;;22.66;37.49;99758.50;4902370;29;20258;-84
2021/08/25 10:04:06;;;;;;;7.07;4.90;;;;;;;22.50;36.98;99750.81;4917861;29;20231;-84
2021/08/25 10:06:37;;;;;;;6.97;4.87;;;;;;;22.43;38.04;99742.19;4917897;29;20240;-84
2021/08/25 10:09:05;;;;;;;6.60;4.57;;;;;;;22.24;38.73;99747.63;4902598;29;20232;-85
2021/08/25 10:11:33;;;;;;;6.17;4.43;;;;;;;22.34;39.18;99758.41;4902538;29;20233;-85
2021/08/25 10:14:06;;;;;;;6.03;4.10;;;;;;;22.00;38.73;99746.84;4918103;29;20250;-82
2021/08/25 10:16:43;;;;;;;5.90;4.37;;;;;;;22.23;39.21;99737.81;4902122;29;20588;-85
2021/08/25 10:19:36;;;;;;;4.93;3.93;;;;;;;22.89;38.54;99750.53;4902025;29;20699;-84
2021/08/25 10:22:15;;;;;;;6.37;4.30;;;;;;;22.45;37.95;99739.97;4902533;29;20247;-81
2021/08/25 10:24:58;;;;;;;7.50;5.23;;;;;;;22.60;38.08;99735.09;4918142;29;20263;-84
2021/08/25 10:27:30;;;;;;;6.20;5.00;;;;;;;23.05;37.56;99738.25;4917949;29;20711;-83
2021/08/25 10:30:11;;;;;;;5.87;4.30;;;;;;;22.98;37.48;99735.09;4917775;29;20604;-82
2021/08/25 10:33:00;;;;;;;6.97;4.47;;;;;;;22.49;38.11;99730.09;4901744;29;20234;-81
2021/08/25 10:35:31;;;;;;;5.13;4.50;;;;;;;22.56;37.99;99723.16;4918670;29;20291;-83
2021/08/25 10:38:24;;;;;;;6.87;4.47;;;;;;;22.71;38.20;99727.59;4901422;29;20235;-81
2021/08/25 10:40:54;;;;;;;5.37;4.13;;;;;;;23.37;37.59;99724.56;4901694;29;20243;-85
2021/08/25 10:43:37;;;;;;;8.60;4.50;;;;;;;23.49;37.26;99715.88;4902179;29;20264;-82
2021/08/25 10:46:05;;;;;;;5.90;4.23;;;;;;;23.36;36.64;99705.72;4885404;29;20267;-81
2021/08/25 10:48:49;;;;;;;5.23;4.27;;;;;;;22.70;37.87;99709.59;4917507;29;20229;-84
2021/08/25 10:51:23;;;;;;;5.97;4.40;;;;;;;22.58;38.77;99695.56;4901980;29;20233;-81
2021/08/25 10:53:50;;;;;;;7.23;4.67;;;;;;;22.93;38.28;99707.84;4918594;29;20264;-83
2021/08/25 10:56:27;;;;;;;6.30;4.60;;;;;;;23.26;36.95;99699.34;4901286;29;20329;-81
2021/08/25 10:59:00;;;;;;;5.23;4.23;;;;;;;23.18;37.29;99693.75;4901753;29;20254;-84
2021/08/25 11:01:34;;;;;;;6.23;4.20;;;;;;;23.58;36.62;99697.66;4901954;29;20239;-83
2021/08/25 11:04:19;;;;;;;6.53;4.20;;;;;;;23.25;37.99;99694.16;4917899;29;20239;-84
2021/08/25 11:07:02;;;;;;;6.03;4.10;;;;;;;23.15;37.02;99689.69;4915710;29;20228;-83
2021/08/25 11:09:34;;;;;;;7.10;4.20;;;;;;;23.26;37.86;99682.13;4902106;29;20333;-85
2021/08/25 11:12:02;;;;;;;5.90;4.10;;;;;;;23.09;37.36;99674.50;4901670;29;20243;-82
2021/08/25 11:14:33;;;;;;;6.27;4.47;;;;;;;23.24;37.62;99684.34;4918232;29;20236;-81
2021/08/25 11:17:06;;;;;;;6.50;4.50;;;;;;;22.60;37.77;99671.47;4917387;29;21256;-85
2021/08/25 11:19:37;;;;;;;6.43;4.70;;;;;;;22.69;38.47;99672.44;4899855;29;20271;-82
2021/08/25 11:22:04;;;;;;;5.80;4.37;;;;;;;22.22;39.01;99670.69;4899987;29;20212;-85
2021/08/25 11:24:32;;;;;;;5.47;3.97;;;;;;;22.21;39.18;99669.88;4900561;29;20228;-82
2021/08/25 11:26:59;;;;;;;7.57;4.37;;;;;;;22.26;39.64;99671.72;4900772;29;20640;-87
2021/08/25 11:29:26;;;;;;;5.63;4.13;;;;;;;22.31;40.71;99664.28;4900973;29;20308;-85
2021/08/25 11:31:53;;;;;;;7.63;4.60;;;;;;;22.25;40.37;99660.03;4900883;29;20281;-80
2021/08/25 11:34:21;;;;;;;6.17;4.73;;;;;;;23.00;38.62;99665.38;4885792;29;20229;-79
2021/08/25 11:36:56;;;;;;;6.87;4.80;;;;;;;24.00;36.87;99655.47;4917579;29;20267;-80
2021/08/25 11:39:23;;;;;;;5.87;4.77;;;;;;;23.88;34.60;99658.75;4900948;29;20235;-81
2021/08/25 11:41:51;;;;;;;6.50;4.63;;;;;;;23.82;34.52;99657.25;4885297;29;20234;-85
2021/08/25 11:44:46;;;;;;;6.43;4.83;;;;;;;24.30;35.22;99656.75;4916186;29;20227;-82
2021/08/25 11:47:14;;;;;;;6.37;4.73;;;;;;;24.05;36.06;99649.91;4900683;29;20285;-82
2021/08/25 11:49:42;;;;;;;5.77;4.50;;;;;;;23.76;36.27;99652.16;4904050;29;20611;-84
2021/08/25 11:52:10;;;;;;;5.97;4.60;;;;;;;23.69;36.46;99658.88;4919403;29;20236;-82
2021/08/25 11:54:41;;;;;;;5.77;4.53;;;;;;;23.38;36.01;99652.34;4888663;29;20229;-84
2021/08/25 11:57:11;;;;;;;7.03;4.73;;;;;;;22.83;37.42;99643.28;4903967;29;20238;-85
2021/08/25 11:59:57;;;;;;;6.20;4.77;;;;;;;22.80;37.47;99649.34;4904466;29;20242;-83
2021/08/25 12:02:25;;;;;;;6.67;4.17;;;;;;;22.38;39.41;99644.81;4888476;29;20240;-84
2021/08/25 12:04:52;;;;;;;5.87;4.40;;;;;;;22.44;39.41;99637.34;4919090;29;20237;-81
2021/08/25 12:07:19;;;;;;;6.37;4.50;;;;;;;22.08;39.73;99621.50;4919462;29;20244;-84
2021/08/25 12:09:46;;;;;;;5.50;4.23;;;;;;;22.04;40.11;99625.13;4919434;29;20289;-81
2021/08/25 12:12:13;;;;;;;5.13;4.23;;;;;;;23.15;37.89;99621.38;4920258;29;20266;-82
2021/08/25 12:14:53;;;;;;;6.70;4.30;;;;;;;23.69;36.45;99631.53;4903784;29;20585;-81
2021/08/25 12:17:21;;;;;;;6.77;4.50;;;;;;;24.83;34.97;99600.09;4919324;29;20240;-84